Latest Weather Observations for Kurnell

IDN60801

Issued at 7:05 pm EDT Saturday 29 November 2014 (issued every 30 minutes, with the page automatically refreshed every 10 minutes)

About weather observations | Map of weather stations | Latest weather observations for NSW | Other Formats
Station Details ID: 066043 Name: KURNELL AWS Lat: -34.00 Lon: 151.21 Height: 4.0 m
Data from the previous 72 hours. | See also: Recent months for locations in New South Wales
Date/Time
EDT
Temp
°C
App
Temp
°C
Dew
Point
Rel
Hum
%
Delta-T
°C
Wind Press
QNH
hPa
Press
MSL
hPa
Rain
since 9 am
mm
Dir
 
Spd
km/h
Gust
km/h
Spd
kts
Gust
kts
29/07:00pm - - - - - NE 35 44 19 24 - - -
29/06:30pm - - - - - NE 39 52 21 28 - - -
29/06:00pm - - - - - NE 39 48 21 26 - - -
29/05:30pm - - - - - NE 37 48 20 26 - - -
29/05:00pm - - - - - NE 43 52 23 28 - - -
29/04:30pm - - - - - ENE 41 50 22 27 - - -
29/04:00pm - - - - - ENE 35 46 19 25 - - -
29/03:30pm - - - - - ENE 33 41 18 22 - - -
29/03:00pm - - - - - ENE 35 41 19 22 - - -
29/02:30pm - - - - - ENE 35 39 19 21 - - -
29/02:00pm - - - - - ENE 32 39 17 21 - - -
29/01:30pm - - - - - ENE 30 33 16 18 - - -
29/01:00pm - - - - - E 30 32 16 17 - - -
29/12:30pm - - - - - ENE 28 33 15 18 - - -
29/12:00pm - - - - - E 28 32 15 17 - - -
29/11:30am - - - - - ENE 30 32 16 17 - - -
29/11:00am - - - - - E 22 26 12 14 - - -
29/10:30am - - - - - E 15 19 8 10 - - -
29/10:00am - - - - - NNE 9 13 5 7 - - -
29/09:30am - - - - - NNW 11 15 6 8 - - -
29/09:00am - - - - - NW 13 15 7 8 - - -
29/08:30am - - - - - WNW 9 13 5 7 - - -
29/08:00am - - - - - W 11 13 6 7 - - -
29/07:30am - - - - - WSW 7 9 4 5 - - -
29/07:00am - - - - - SSW 7 9 4 5 - - -
29/06:30am - - - - - SW 7 9 4 5 - - -
29/06:00am - - - - - W 7 9 4 5 - - -
29/05:30am - - - - - SW 7 7 4 4 - - -
29/05:00am - - - - - WSW 9 11 5 6 - - -
29/04:30am - - - - - SSW 6 7 3 4 - - -
29/04:00am - - - - - S 6 6 3 3 - - -
29/03:30am - - - - - S 2 7 1 4 - - -
29/03:00am - - - - - SW 6 9 3 5 - - -
29/02:30am - - - - - W 11 13 6 7 - - -
29/02:00am - - - - - NNW 13 15 7 8 - - -
29/01:30am - - - - - NNE 17 20 9 11 - - -
29/01:00am - - - - - NE 17 22 9 12 - - -
29/12:30am - - - - - NE 17 20 9 11 - - -
29/12:00am - - - - - NE 17 20 9 11 - - -
 
Date/Time
EDT
Temp
°C
App
Temp
°C
Dew
Point
Rel
Hum
%
Delta-T
°C
Wind Press
QNH
hPa
Press
MSL
hPa
Rain
since 9 am
mm
Dir
 
Spd
km/h
Gust
km/h
Spd
kts
Gust
kts
28/11:30pm - - - - - NE 20 26 11 14 - - -
28/11:00pm - - - - - NE 17 22 9 12 - - -
28/10:30pm - - - - - NE 20 28 11 15 - - -
28/10:00pm - - - - - NE 20 28 11 15 - - -
28/09:30pm - - - - - NE 24 30 13 16 - - -
28/09:00pm - - - - - NE 28 32 15 17 - - -
28/08:30pm - - - - - NE 26 32 14 17 - - -
28/08:00pm - - - - - NE 26 32 14 17 - - -
28/07:30pm - - - - - ENE 28 33 15 18 - - -
28/07:00pm - - - - - NE 28 33 15 18 - - -
28/06:30pm - - - - - ENE 30 35 16 19 - - -
28/06:00pm - - - - - ENE 28 33 15 18 - - -
28/05:30pm - - - - - ENE 28 32 15 17 - - -
28/05:00pm - - - - - ENE 26 32 14 17 - - -
28/04:30pm - - - - - NE 30 33 16 18 - - -
28/04:00pm - - - - - E 24 30 13 16 - - -
28/03:30pm - - - - - E 22 30 12 16 - - -
28/03:00pm - - - - - E 22 28 12 15 - - -
28/02:30pm - - - - - E 22 30 12 16 - - -
28/02:00pm - - - - - E 20 26 11 14 - - -
28/01:30pm - - - - - E 19 24 10 13 - - -
28/01:00pm - - - - - E 19 28 10 15 - - -
28/12:30pm - - - - - E 17 26 9 14 - - -
28/12:00pm - - - - - E 17 24 9 13 - - -
28/11:30am - - - - - E 19 24 10 13 - - -
28/11:00am - - - - - E 17 22 9 12 - - -
28/10:30am - - - - - E 15 22 8 12 - - -
28/10:00am - - - - - ESE 11 17 6 9 - - -
28/09:30am - - - - - SE 13 19 7 10 - - -
28/09:00am - - - - - SE 11 19 6 10 - - -
28/08:30am - - - - - SE 11 17 6 9 - - -
28/08:00am - - - - - SE 11 19 6 10 - - -
28/07:30am - - - - - SE 11 17 6 9 - - -
28/07:00am - - - - - SE 11 15 6 8 - - -
28/06:30am - - - - - SSE 9 13 5 7 - - -
28/06:00am - - - - - SE 11 15 6 8 - - -
28/05:30am - - - - - SSE 11 13 6 7 - - -
28/05:00am - - - - - SSE 9 13 5 7 - - -
28/04:30am - - - - - SSE 11 15 6 8 - - -
28/04:00am - - - - - SSE 13 17 7 9 - - -
28/03:30am - - - - - SSE 11 15 6 8 - - -
28/03:00am - - - - - SE 11 17 6 9 - - -
28/02:30am - - - - - SSE 15 17 8 9 - - -
28/02:00am - - - - - SE 13 17 7 9 - - -
28/01:30am - - - - - SSE 13 19 7 10 - - -
28/01:00am - - - - - SE 15 19 8 10 - - -
28/12:30am - - - - - SE 15 19 8 10 - - -
28/12:00am - - - - - SE 15 19 8 10 - - -
 
Date/Time
EDT
Temp
°C
App
Temp
°C
Dew
Point
Rel
Hum
%
Delta-T
°C
Wind Press
QNH
hPa
Press
MSL
hPa
Rain
since 9 am
mm
Dir
 
Spd
km/h
Gust
km/h
Spd
kts
Gust
kts
27/11:30pm - - - - - SE 13 19 7 10 - - -
27/11:00pm - - - - - SE 19 26 10 14 - - -
27/10:30pm - - - - - SE 13 17 7 9 - - -
27/10:00pm - - - - - SE 17 22 9 12 - - -
27/09:30pm - - - - - SE 15 20 8 11 - - -
27/09:00pm - - - - - SSE 17 19 9 10 - - -
27/08:30pm - - - - - SE 15 22 8 12 - - -
27/08:00pm - - - - - SE 17 24 9 13 - - -
27/07:30pm - - - - - SSE 17 24 9 13 - - -
27/07:00pm - - - - - SSE 19 26 10 14 - - -
27/06:30pm - - - - - SSE 20 28 11 15 - - -
27/06:00pm - - - - - SSE 17 26 9 14 - - -
27/05:30pm - - - - - SSE 19 32 10 17 - - -
27/05:00pm - - - - - SSE 19 26 10 14 - - -
27/04:30pm - - - - - SSE 24 32 13 17 - - -
27/04:00pm - - - - - SSE 19 26 10 14 - - -
27/03:30pm - - - - - S 19 26 10 14 - - -
27/03:00pm - - - - - SSE 24 33 13 18 - - -
27/02:30pm - - - - - SSE 22 30 12 16 - - -
27/02:00pm - - - - - SSE 24 33 13 18 - - -
27/01:30pm - - - - - SSE 22 32 12 17 - - -
27/01:00pm - - - - - SSE 22 33 12 18 - - -
27/12:30pm - - - - - SSE 24 32 13 17 - - -
27/12:00pm - - - - - SSE 26 35 14 19 - - -
27/11:30am - - - - - SSE 24 33 13 18 - - -
27/11:00am - - - - - SE 22 32 12 17 - - -
27/10:30am - - - - - SSE 24 32 13 17 - - -
27/10:00am - - - - - SSE 24 32 13 17 - - -
27/09:30am - - - - - S 20 30 11 16 - - -
27/09:00am - - - - - S 24 35 13 19 - - -
27/08:30am - - - - - S 24 33 13 18 - - -
27/08:00am - - - - - S 20 32 11 17 - - -
27/07:30am - - - - - S 26 35 14 19 - - -
27/07:00am - - - - - S 28 39 15 21 - - -
27/06:30am - - - - - SSE 28 37 15 20 - - -
27/06:19am - - - - - SE 28 46 15 25 - - -
27/06:00am - - - - - SE 28 35 15 19 - - -
27/05:30am - - - - - SE 33 43 18 23 - - -
27/05:00am - - - - - SE 32 44 17 24 - - -
27/04:30am - - - - - SE 28 37 15 20 - - -
27/04:00am - - - - - SE 30 39 16 21 - - -
27/03:30am - - - - - SSE 24 30 13 16 - - -
27/03:00am - - - - - SE 11 13 6 7 - - -
27/02:30am - - - - - SE 9 11 5 6 - - -
27/02:00am - - - - - ESE 11 13 6 7 - - -
27/01:30am - - - - - SE 11 13 6 7 - - -
27/01:00am - - - - - SE 11 13 6 7 - - -
27/12:30am - - - - - ESE 11 13 6 7 - - -
27/12:00am - - - - - ESE 11 13 6 7 - - -
 
Date/Time
EDT
Temp
°C
App
Temp
°C
Dew
Point
Rel
Hum
%
Delta-T
°C
Wind Press
QNH
hPa
Press
MSL
hPa
Rain
since 9 am
mm
Dir
 
Spd
km/h
Gust
km/h
Spd
kts
Gust
kts
26/11:30pm - - - - - ESE 11 15 6 8 - - -
26/11:00pm - - - - - E 15 20 8 11 - - -
26/10:30pm - - - - - E 13 19 7 10 - - -
26/10:00pm - - - - - E 15 19 8 10 - - -
26/09:30pm - - - - - E 17 20 9 11 - - -
26/09:00pm - - - - - E 20 28 11 15 - - -
26/08:30pm - - - - - ENE 19 26 10 14 - - -
26/08:00pm - - - - - ENE 22 28 12 15 - - -
26/07:30pm - - - - - ENE 26 32 14 17 - - -

Other Formats:

Comma delimited format used in spreadsheet applications
http://www.bom.gov.au/fwo/IDN60801/IDN60801.95756.axf

JavaScript Object Notation format (JSON) in row-major order
http://www.bom.gov.au/fwo/IDN60801/IDN60801.95756.json